createdAt,value
2022-09-10T00:01:30.862Z,13.47
2022-09-10T00:04:00.393Z,13.42
2022-09-10T00:06:29.151Z,13.40
2022-09-10T00:08:57.988Z,13.41
2022-09-10T00:11:28.180Z,13.39
2022-09-10T00:13:57.365Z,13.37
2022-09-10T00:16:26.015Z,13.37
2022-09-10T00:18:53.846Z,13.36
2022-09-10T00:21:21.719Z,13.32
2022-09-10T00:23:49.875Z,13.34
2022-09-10T00:26:34.583Z,13.36
2022-09-10T00:29:02.611Z,13.26
2022-09-10T00:31:32.096Z,13.22
2022-09-10T00:34:01.905Z,13.18
2022-09-10T00:36:39.888Z,13.11
2022-09-10T00:39:10.695Z,13.21
2022-09-10T00:41:41.086Z,13.13
2022-09-10T00:44:42.791Z,13.21
2022-09-10T00:47:36.404Z,13.19
2022-09-10T00:50:20.944Z,13.10
2022-09-10T00:52:51.150Z,13.01
2022-09-10T00:55:20.597Z,13.03
2022-09-10T00:57:54.845Z,13.03
2022-09-10T01:00:23.236Z,12.90
2022-09-10T01:02:52.134Z,12.91
2022-09-10T01:05:19.847Z,12.85
2022-09-10T01:07:48.274Z,12.84
2022-09-10T01:10:28.952Z,12.87
2022-09-10T01:13:37.091Z,12.88
2022-09-10T01:16:54.911Z,12.81
2022-09-10T01:19:44.016Z,12.73
2022-09-10T01:22:32.873Z,12.84
2022-09-10T01:25:12.292Z,12.71
2022-09-10T01:27:44.079Z,12.71
2022-09-10T01:30:20.418Z,12.66
2022-09-10T01:33:01.708Z,12.65
2022-09-10T01:35:49.891Z,12.73
2022-09-10T01:38:31.861Z,12.79
2022-09-10T01:41:00.339Z,12.75
2022-09-10T01:43:33.264Z,12.75
2022-09-10T01:46:39.400Z,12.64
2022-09-10T01:49:07.338Z,12.64
2022-09-10T01:51:57.919Z,12.70
2022-09-10T01:54:50.212Z,12.77
2022-09-10T01:57:24.032Z,12.72
2022-09-10T01:59:55.257Z,12.75
2022-09-10T02:02:37.225Z,12.81
2022-09-10T02:05:06.887Z,12.66
2022-09-10T02:07:37.039Z,12.69
2022-09-10T02:10:08.098Z,12.73
2022-09-10T02:12:42.215Z,12.72
2022-09-10T02:15:28.786Z,12.64
2022-09-10T02:18:20.817Z,12.62
2022-09-10T02:20:51.973Z,12.60
2022-09-10T02:23:27.364Z,12.60
2022-09-10T02:25:55.596Z,12.52
2022-09-10T02:28:30.361Z,12.54
2022-09-10T02:30:58.970Z,12.53
2022-09-10T02:33:27.904Z,12.55
2022-09-10T02:35:56.899Z,12.53
2022-09-10T02:38:24.597Z,12.54
2022-09-10T02:40:56.039Z,12.58
2022-09-10T02:43:25.029Z,12.56
2022-09-10T02:45:57.779Z,12.58
2022-09-10T02:48:27.179Z,12.68
2022-09-10T02:50:58.179Z,12.65
2022-09-10T02:53:27.851Z,12.67
2022-09-10T02:55:58.885Z,12.72
2022-09-10T02:58:26.779Z,12.57
2022-09-10T03:01:09.524Z,12.57
2022-09-10T03:03:38.309Z,12.50
2022-09-10T03:06:06.233Z,12.43
2022-09-10T03:08:34.917Z,12.44
2022-09-10T03:11:02.943Z,12.44
2022-09-10T03:13:30.471Z,12.35
2022-09-10T03:15:59.881Z,12.39
2022-09-10T03:18:31.100Z,12.35
2022-09-10T03:21:18.925Z,12.37
2022-09-10T03:23:49.564Z,12.37
2022-09-10T03:26:25.309Z,12.33
2022-09-10T03:28:54.079Z,12.29
2022-09-10T03:31:24.675Z,12.33
2022-09-10T03:33:52.373Z,12.32
2022-09-10T03:36:22.921Z,12.24
2022-09-10T03:38:51.242Z,12.29
2022-09-10T03:41:19.044Z,12.36
2022-09-10T03:43:47.892Z,12.36
2022-09-10T03:46:16.172Z,12.43
2022-09-10T03:48:45.972Z,12.55
2022-09-10T03:51:14.155Z,12.53
2022-09-10T03:53:42.556Z,12.49
2022-09-10T03:56:11.248Z,12.52
2022-09-10T03:58:40.543Z,12.44
2022-09-10T04:01:09.552Z,12.41
2022-09-10T04:03:41.168Z,12.47
2022-09-10T04:06:12.972Z,12.49
2022-09-10T04:08:41.301Z,12.48
2022-09-10T04:11:11.858Z,12.42
2022-09-10T04:13:40.678Z,12.43
2022-09-10T04:16:08.290Z,12.40
2022-09-10T04:18:36.460Z,12.38
2022-09-10T04:21:04.622Z,12.44
2022-09-10T04:23:32.927Z,12.43
2022-09-10T04:26:15.175Z,12.38
2022-09-10T04:28:45.297Z,12.22
2022-09-10T04:31:13.059Z,12.33
2022-09-10T04:33:40.694Z,12.31
2022-09-10T04:36:08.436Z,12.34
2022-09-10T04:38:41.732Z,12.39
2022-09-10T04:41:12.182Z,12.41
2022-09-10T04:43:41.349Z,12.40
2022-09-10T04:46:08.914Z,12.35
2022-09-10T04:48:39.140Z,12.42
2022-09-10T04:51:17.238Z,12.42
2022-09-10T04:53:54.409Z,12.31
2022-09-10T04:56:26.690Z,12.35
2022-09-10T04:58:54.478Z,12.38
2022-09-10T05:01:22.338Z,12.40
2022-09-10T05:03:52.731Z,12.38
2022-09-10T05:06:20.509Z,12.34
2022-09-10T05:08:50.843Z,12.32
2022-09-10T05:11:19.851Z,12.34
2022-09-10T05:13:48.084Z,12.23
2022-09-10T05:16:19.347Z,12.30
2022-09-10T05:18:46.966Z,12.35
2022-09-10T05:21:15.708Z,12.34
2022-09-10T05:23:44.361Z,12.45
2022-09-10T05:26:12.171Z,12.65
2022-09-10T05:28:40.038Z,12.71
2022-09-10T05:31:09.922Z,12.68
2022-09-10T05:33:40.787Z,12.67
2022-09-10T05:36:11.699Z,12.80
2022-09-10T05:38:41.407Z,12.71
2022-09-10T05:41:10.633Z,12.76
2022-09-10T05:43:42.157Z,12.78
2022-09-10T05:46:11.384Z,12.76
2022-09-10T05:48:42.079Z,12.70
2022-09-10T05:51:11.779Z,12.72
2022-09-10T05:53:41.780Z,12.72
2022-09-10T05:56:09.391Z,12.78
2022-09-10T05:58:38.645Z,12.83
2022-09-10T06:01:08.106Z,12.93
2022-09-10T06:03:35.760Z,13.04
2022-09-10T06:06:03.802Z,13.04
2022-09-10T06:08:36.498Z,13.05
2022-09-10T06:11:11.940Z,12.96
2022-09-10T06:13:44.322Z,12.86
2022-09-10T06:16:12.976Z,12.90
2022-09-10T06:18:42.479Z,12.96
2022-09-10T06:21:15.441Z,12.97
2022-09-10T06:23:45.292Z,13.05
2022-09-10T06:26:18.561Z,13.09
2022-09-10T06:28:52.935Z,13.22
2022-09-10T06:31:20.646Z,13.29
2022-09-10T06:33:50.816Z,13.32
2022-09-10T06:36:21.674Z,13.35
2022-09-10T06:38:57.837Z,13.46
2022-09-10T06:41:25.732Z,13.46
2022-09-10T06:43:59.026Z,13.50
2022-09-10T06:49:26.038Z,13.67
2022-09-10T06:51:53.825Z,13.63
2022-09-10T06:54:21.341Z,13.59
2022-09-10T06:56:49.425Z,13.66
2022-09-10T06:59:18.499Z,13.66
2022-09-10T07:01:49.504Z,13.83
2022-09-10T07:04:18.570Z,13.73
2022-09-10T07:06:47.650Z,13.76
2022-09-10T07:09:17.215Z,13.76
2022-09-10T07:12:04.967Z,13.89
2022-09-10T07:14:36.567Z,13.80
2022-09-10T07:17:07.619Z,13.82
2022-09-10T07:19:37.738Z,13.85
2022-09-10T07:22:12.836Z,13.84
2022-09-10T07:24:41.257Z,13.83
2022-09-10T07:27:13.190Z,13.82
2022-09-10T07:29:43.195Z,13.86
2022-09-10T07:32:16.930Z,13.95
2022-09-10T07:34:44.468Z,14.01
2022-09-10T07:37:15.860Z,13.94
2022-09-10T07:39:46.110Z,13.94
2022-09-10T07:42:14.472Z,13.97
2022-09-10T07:44:42.922Z,13.95
2022-09-10T07:47:10.424Z,14.02
2022-09-10T07:49:39.029Z,14.08
2022-09-10T07:52:08.070Z,14.09
2022-09-10T07:54:47.165Z,14.16
2022-09-10T07:57:14.830Z,14.11
2022-09-10T07:59:42.423Z,14.17
2022-09-10T08:02:13.991Z,14.19
2022-09-10T08:04:43.074Z,14.23
2022-09-10T08:07:12.294Z,14.30
2022-09-10T08:09:43.301Z,14.32
2022-09-10T08:12:17.701Z,14.32
2022-09-10T08:14:46.444Z,14.35
2022-09-10T08:17:15.108Z,14.46
2022-09-10T08:19:45.228Z,14.48
2022-09-10T08:22:14.311Z,14.55
2022-09-10T08:24:53.454Z,14.64
2022-09-10T08:27:23.706Z,14.72
2022-09-10T08:29:53.419Z,14.71
2022-09-10T08:32:21.746Z,14.70
2022-09-10T08:34:49.232Z,14.72
2022-09-10T08:37:19.146Z,14.75
2022-09-10T08:39:46.901Z,14.71
2022-09-10T08:42:30.701Z,14.66
2022-09-10T08:45:07.349Z,14.69
2022-09-10T08:47:42.015Z,14.70
2022-09-10T08:50:26.610Z,14.70
2022-09-10T08:53:23.145Z,14.82
2022-09-10T08:56:01.516Z,14.87
2022-09-10T08:58:41.546Z,14.78
2022-09-10T09:01:18.429Z,14.78
2022-09-10T09:03:55.816Z,14.84
2022-09-10T09:06:32.055Z,14.93
2022-09-10T09:09:01.878Z,14.90
2022-09-10T09:11:42.436Z,14.92
2022-09-10T09:14:55.039Z,14.95
2022-09-10T09:17:34.561Z,14.97
2022-09-10T09:20:08.578Z,15.07
2022-09-10T09:22:55.181Z,15.13
2022-09-10T09:25:46.204Z,15.19
2022-09-10T09:28:26.133Z,15.29
2022-09-10T09:30:59.980Z,15.41
2022-09-10T09:33:30.586Z,15.41
2022-09-10T09:36:03.162Z,15.49
2022-09-10T09:38:47.792Z,15.68
2022-09-10T09:41:39.379Z,15.80
2022-09-10T09:44:07.047Z,15.95
2022-09-10T09:46:35.423Z,16.02
2022-09-10T09:49:15.891Z,16.01
2022-09-10T09:51:48.779Z,16.03
2022-09-10T09:57:16.294Z,16.15
2022-09-10T09:59:43.823Z,16.16
2022-09-10T10:02:19.144Z,16.18
2022-09-10T10:05:00.095Z,16.15
2022-09-10T10:07:33.446Z,16.15
2022-09-10T10:10:02.779Z,16.22
2022-09-10T10:12:31.765Z,16.17
2022-09-10T10:15:02.779Z,16.15
2022-09-10T10:17:35.835Z,16.14
2022-09-10T10:20:12.979Z,16.19
2022-09-10T10:22:45.948Z,16.24
2022-09-10T10:25:41.348Z,16.19
2022-09-10T10:28:36.234Z,16.14
2022-09-10T10:31:04.805Z,16.14
2022-09-10T10:33:33.727Z,16.17
2022-09-10T10:36:06.204Z,16.19
2022-09-10T10:38:45.911Z,16.19
2022-09-10T10:41:19.511Z,16.25
2022-09-10T10:44:04.231Z,16.28
2022-09-10T10:46:48.697Z,16.21
2022-09-10T10:49:32.306Z,16.19
2022-09-10T10:52:28.623Z,16.31
2022-09-10T10:55:35.065Z,16.34
2022-09-10T10:58:34.688Z,16.40
2022-09-10T11:01:22.892Z,16.42
2022-09-10T11:04:03.856Z,16.52
2022-09-10T11:06:40.543Z,16.55
2022-09-10T11:09:22.760Z,16.54
2022-09-10T11:11:59.982Z,16.52
2022-09-10T11:14:32.794Z,16.56
2022-09-10T11:17:06.886Z,16.54
2022-09-10T11:19:43.162Z,16.53
2022-09-10T11:22:23.987Z,16.59
2022-09-10T11:25:00.617Z,16.68
2022-09-10T11:27:35.959Z,16.77
2022-09-10T11:30:11.651Z,16.80
2022-09-10T11:33:05.908Z,16.80
2022-09-10T11:35:41.052Z,16.84
2022-09-10T11:38:14.704Z,16.86
2022-09-10T11:41:03.615Z,16.94
2022-09-10T11:44:03.825Z,16.95
2022-09-10T11:46:38.202Z,16.91
2022-09-10T11:49:23.232Z,16.98
2022-09-10T11:51:51.407Z,17.03
2022-09-10T11:54:28.287Z,17.07
2022-09-10T11:57:48.465Z,17.05
2022-09-10T12:00:18.471Z,17.11
2022-09-10T12:02:55.495Z,17.08
2022-09-10T12:05:43.722Z,17.15
2022-09-10T12:08:17.710Z,17.14
2022-09-10T12:11:15.668Z,17.19
2022-09-10T12:13:45.963Z,17.18
2022-09-10T12:16:47.122Z,17.21
2022-09-10T12:19:29.428Z,17.22
2022-09-10T12:22:01.767Z,17.28
2022-09-10T12:24:36.705Z,17.29
2022-09-10T12:27:06.231Z,17.30
2022-09-10T12:29:40.929Z,17.32
2022-09-10T12:32:14.239Z,17.31
2022-09-10T12:34:42.344Z,17.31
2022-09-10T12:37:22.071Z,17.32
2022-09-10T12:40:25.178Z,17.26
2022-09-10T12:42:59.051Z,17.28
2022-09-10T12:46:00.915Z,17.18
2022-09-10T12:48:29.907Z,16.87
2022-09-10T12:51:00.688Z,16.48
2022-09-10T12:53:56.031Z,16.13
2022-09-10T12:57:09.107Z,15.94
2022-09-10T12:59:45.295Z,15.82
2022-09-10T13:02:21.919Z,15.68
2022-09-10T13:05:03.292Z,15.51
2022-09-10T13:07:37.114Z,15.41
2022-09-10T13:10:21.647Z,15.42
2022-09-10T13:12:57.196Z,15.57
2022-09-10T13:15:30.017Z,15.70
2022-09-10T13:17:57.600Z,15.84
2022-09-10T13:20:25.034Z,15.98
2022-09-10T13:23:19.443Z,16.07
2022-09-10T13:25:48.244Z,16.12
2022-09-10T13:28:34.027Z,16.22
2022-09-10T13:31:17.170Z,16.29
2022-09-10T13:33:57.815Z,16.33
2022-09-10T13:36:35.630Z,16.43
2022-09-10T13:39:47.573Z,16.42
2022-09-10T13:42:35.743Z,16.45
2022-09-10T13:45:24.476Z,16.44
2022-09-10T13:48:02.945Z,16.44
2022-09-10T13:50:39.246Z,16.41
2022-09-10T13:53:11.215Z,16.42
2022-09-10T13:55:48.946Z,16.40
2022-09-10T13:58:20.658Z,16.43
2022-09-10T14:00:57.349Z,16.45
2022-09-10T14:03:36.541Z,16.45
2022-09-10T14:06:05.151Z,16.42
2022-09-10T14:08:39.783Z,16.45
2022-09-10T14:11:13.182Z,16.42
2022-09-10T14:14:06.232Z,16.44
2022-09-10T14:16:38.008Z,16.37
2022-09-10T14:19:15.078Z,16.34
2022-09-10T14:21:43.739Z,16.36
2022-09-10T14:24:27.259Z,16.38
2022-09-10T14:27:28.495Z,16.39
2022-09-10T14:29:58.099Z,16.38
2022-09-10T14:32:30.227Z,16.40
2022-09-10T14:34:59.167Z,16.44
2022-09-10T14:37:41.989Z,16.40
2022-09-10T14:40:20.910Z,16.40
2022-09-10T14:42:50.372Z,16.36
2022-09-10T14:45:44.251Z,16.34
2022-09-10T14:48:32.896Z,16.38
2022-09-10T14:51:11.047Z,16.38
2022-09-10T14:53:39.806Z,16.33
2022-09-10T14:56:19.865Z,16.39
2022-09-10T14:58:57.518Z,16.41
2022-09-10T15:01:25.794Z,16.38
2022-09-10T15:03:53.690Z,16.38
2022-09-10T15:06:26.031Z,16.36
2022-09-10T15:08:56.271Z,16.37
2022-09-10T15:11:28.265Z,16.37
2022-09-10T15:13:56.459Z,16.39
2022-09-10T15:16:23.984Z,16.40
2022-09-10T15:18:51.623Z,16.44
2022-09-10T15:21:19.929Z,16.44
2022-09-10T15:23:48.344Z,16.42
2022-09-10T15:26:16.138Z,16.42
2022-09-10T15:28:43.738Z,16.45
2022-09-10T15:31:11.361Z,16.46
2022-09-10T15:33:40.125Z,16.42
2022-09-10T15:36:08.117Z,16.42
2022-09-10T15:38:35.819Z,16.42
2022-09-10T15:41:13.011Z,16.49
2022-09-10T15:43:43.199Z,16.55
2022-09-10T15:46:12.196Z,16.50
2022-09-10T15:48:40.292Z,16.49
2022-09-10T15:51:13.823Z,16.50
2022-09-10T15:53:42.797Z,16.46
2022-09-10T15:56:11.868Z,16.45
2022-09-10T15:58:39.607Z,16.42
2022-09-10T16:01:12.689Z,16.39
2022-09-10T16:03:46.310Z,16.38
2022-09-10T16:06:15.519Z,16.41
2022-09-10T16:08:48.683Z,16.39
2022-09-10T16:11:16.655Z,16.45
2022-09-10T16:13:46.901Z,16.45
2022-09-10T16:16:18.775Z,16.41
2022-09-10T16:18:46.780Z,16.42
2022-09-10T16:21:15.968Z,16.40
2022-09-10T16:23:43.519Z,16.41
2022-09-10T16:26:15.828Z,16.51
2022-09-10T16:28:51.174Z,16.52
2022-09-10T16:31:22.752Z,16.51
2022-09-10T16:33:54.678Z,16.50
2022-09-10T16:36:23.767Z,16.50
2022-09-10T16:38:54.484Z,16.55
2022-09-10T16:41:23.672Z,16.58
2022-09-10T16:43:51.779Z,16.56
2022-09-10T16:46:19.685Z,16.57
2022-09-10T16:48:47.577Z,16.55
2022-09-10T16:51:17.638Z,16.57
2022-09-10T16:53:48.001Z,16.62
2022-09-10T16:56:16.819Z,16.62
2022-09-10T16:58:48.858Z,16.59
2022-09-10T17:01:18.192Z,16.62
2022-09-10T17:03:49.609Z,16.58
2022-09-10T17:06:20.549Z,16.58
2022-09-10T17:08:49.047Z,16.54
2022-09-10T17:11:18.281Z,16.47
2022-09-10T17:13:46.614Z,16.46
2022-09-10T17:16:26.640Z,16.44
2022-09-10T17:19:07.119Z,16.45
2022-09-10T17:21:36.498Z,16.44
2022-09-10T17:24:06.890Z,16.42
2022-09-10T17:26:35.018Z,16.38
2022-09-10T17:29:06.318Z,16.40
2022-09-10T17:31:35.278Z,16.42
2022-09-10T17:34:04.041Z,16.40
2022-09-10T17:36:32.920Z,16.39
2022-09-10T17:39:00.522Z,16.37
2022-09-10T17:41:29.312Z,16.34
2022-09-10T17:43:59.431Z,16.34
2022-09-10T17:46:27.578Z,16.35
2022-09-10T17:48:55.216Z,16.38
2022-09-10T17:51:26.199Z,16.39
2022-09-10T17:53:55.332Z,16.42
2022-09-10T17:56:25.602Z,16.45
2022-09-10T17:59:02.676Z,16.46
2022-09-10T18:01:36.516Z,16.49
2022-09-10T18:04:05.123Z,16.48
2022-09-10T18:06:35.870Z,16.50
2022-09-10T18:09:04.399Z,16.52
2022-09-10T18:11:35.038Z,16.53
2022-09-10T18:14:04.569Z,16.58
2022-09-10T18:16:34.308Z,16.56
2022-09-10T18:19:13.020Z,16.59
2022-09-10T18:21:42.085Z,16.60
2022-09-10T18:24:12.537Z,16.62
2022-09-10T18:26:44.463Z,16.66
2022-09-10T18:29:19.324Z,16.67
2022-09-10T18:31:49.955Z,16.72
2022-09-10T18:34:24.132Z,16.66
2022-09-10T18:36:57.616Z,16.62
2022-09-10T18:39:27.267Z,16.66
2022-09-10T18:41:57.226Z,16.73
2022-09-10T18:44:27.568Z,16.77
2022-09-10T18:46:56.091Z,16.76
2022-09-10T18:49:25.218Z,16.83
2022-09-10T18:51:55.542Z,16.83
2022-09-10T18:54:28.731Z,16.82
2022-09-10T18:56:59.255Z,16.88
2022-09-10T18:59:26.830Z,16.85
2022-09-10T19:01:56.117Z,16.84
2022-09-10T19:04:27.302Z,16.81
2022-09-10T19:06:56.192Z,16.84
2022-09-10T19:09:26.545Z,16.83
2022-09-10T19:11:55.949Z,16.81
2022-09-10T19:14:26.952Z,16.78
2022-09-10T19:16:56.469Z,16.75
2022-09-10T19:19:29.075Z,16.77
2022-09-10T19:21:59.657Z,16.79
2022-09-10T19:24:43.959Z,16.78
2022-09-10T19:27:14.989Z,16.81
2022-09-10T19:29:43.232Z,16.87
2022-09-10T19:32:11.549Z,16.83
2022-09-10T19:34:39.130Z,16.87
2022-09-10T19:37:07.294Z,16.83
2022-09-10T19:39:35.119Z,16.81
2022-09-10T19:42:02.691Z,16.80
2022-09-10T19:44:30.243Z,16.81
2022-09-10T19:46:58.796Z,16.79
2022-09-10T19:49:26.575Z,16.80
2022-09-10T19:51:54.550Z,16.78
2022-09-10T19:54:22.810Z,16.75
2022-09-10T19:56:50.305Z,16.75
2022-09-10T19:59:18.079Z,16.75
2022-09-10T20:01:46.950Z,16.73
2022-09-10T20:04:15.098Z,16.70
2022-09-10T20:06:45.985Z,16.76
2022-09-10T20:09:14.032Z,16.79
2022-09-10T20:11:41.749Z,16.77
2022-09-10T20:14:14.222Z,16.77
2022-09-10T20:16:44.713Z,16.77
2022-09-10T20:19:14.863Z,16.78
2022-09-10T20:21:42.730Z,16.81
2022-09-10T20:24:10.791Z,16.82
2022-09-10T20:26:41.169Z,16.82
2022-09-10T20:29:13.860Z,16.81
2022-09-10T20:31:43.325Z,16.78
2022-09-10T20:34:14.326Z,16.77
2022-09-10T20:36:45.244Z,16.74
2022-09-10T20:39:14.881Z,16.77
2022-09-10T20:41:43.537Z,16.76
2022-09-10T20:44:13.966Z,16.74
2022-09-10T20:46:42.491Z,16.71
2022-09-10T20:49:12.180Z,16.69
2022-09-10T20:51:41.572Z,16.69
2022-09-10T20:54:14.276Z,16.64
2022-09-10T20:56:43.587Z,16.62
2022-09-10T20:59:16.159Z,16.62
2022-09-10T21:01:46.575Z,16.59
2022-09-10T21:04:14.941Z,16.58
2022-09-10T21:06:43.535Z,16.60
2022-09-10T21:09:11.694Z,16.64
2022-09-10T21:11:40.039Z,16.62
2022-09-10T21:14:08.395Z,16.60
2022-09-10T21:16:41.551Z,16.53
2022-09-10T21:19:15.183Z,16.57
2022-09-10T21:21:53.772Z,16.60
2022-09-10T21:24:22.913Z,16.59
2022-09-10T21:26:50.964Z,16.58
2022-09-10T21:29:20.563Z,16.50
2022-09-10T21:31:50.774Z,16.48
2022-09-10T21:34:19.373Z,16.46
2022-09-10T21:36:47.059Z,16.42
2022-09-10T21:39:17.296Z,16.44
2022-09-10T21:41:47.283Z,16.46
2022-09-10T21:44:17.262Z,16.40
2022-09-10T21:46:45.469Z,16.42
2022-09-10T21:49:13.535Z,16.36
2022-09-10T21:51:41.561Z,16.37
2022-09-10T21:54:18.639Z,16.31
2022-09-10T21:56:47.208Z,16.28
2022-09-10T21:59:15.662Z,16.30
2022-09-10T22:01:44.959Z,16.24
2022-09-10T22:04:13.715Z,16.25
2022-09-10T22:06:41.242Z,16.28
2022-09-10T22:09:12.574Z,16.28
2022-09-10T22:11:46.944Z,16.23
2022-09-10T22:14:17.002Z,16.24
2022-09-10T22:16:45.623Z,16.22
2022-09-10T22:19:16.420Z,16.17
2022-09-10T22:21:44.739Z,16.15
2022-09-10T22:24:14.763Z,16.11
2022-09-10T22:26:44.722Z,16.07
2022-09-10T22:29:15.384Z,16.08
2022-09-10T22:31:42.950Z,16.04
2022-09-10T22:34:13.624Z,16.04
2022-09-10T22:36:43.980Z,16.07
2022-09-10T22:39:19.391Z,16.04
2022-09-10T22:41:48.986Z,16.02
2022-09-10T22:44:20.280Z,16.01
2022-09-10T22:46:48.284Z,16.01
2022-09-10T22:49:16.455Z,15.96
2022-09-10T22:51:44.691Z,15.93
2022-09-10T22:54:12.262Z,15.95
2022-09-10T22:56:40.315Z,15.97
2022-09-10T22:59:12.070Z,15.94
2022-09-10T23:01:40.491Z,15.91
2022-09-10T23:04:09.481Z,15.90
2022-09-10T23:06:38.771Z,15.86
2022-09-10T23:09:15.373Z,15.88
2022-09-10T23:11:44.685Z,15.83
2022-09-10T23:14:19.302Z,15.77
2022-09-10T23:16:49.830Z,15.75
2022-09-10T23:19:20.590Z,15.72
2022-09-10T23:21:51.189Z,15.69
2022-09-10T23:24:22.179Z,15.67
2022-09-10T23:26:50.298Z,15.63
2022-09-10T23:29:18.155Z,15.61
2022-09-10T23:31:46.591Z,15.58
2022-09-10T23:34:16.394Z,15.58
2022-09-10T23:36:46.457Z,15.60
2022-09-10T23:39:20.167Z,15.62
2022-09-10T23:41:49.756Z,15.58
2022-09-10T23:44:17.820Z,15.56
2022-09-10T23:46:45.400Z,15.54
2022-09-10T23:49:13.121Z,15.55
2022-09-10T23:51:41.129Z,15.51
2022-09-10T23:54:10.468Z,15.51
2022-09-10T23:56:39.149Z,15.52
2022-09-10T23:59:08.000Z,15.52
